Time;durP1;ratioP1;P1;durP2;ratioP2;P2;SDS_P1;SDS_P2;PMS_P1;PMS_P2;Temp;Humidity;BMP_temperature;BMP_pressure;BME280_temperature;BME280_humidity;BME280_pressure;Samples;Min_cycle;Max_cycle;Signal;HPM_P1;HPM_P2
2021/09/07 00:01:49;;;;;;;27.50;19.30;;;18.20;99.90;;;;;;5077338;28;20085;-77
2021/09/07 00:04:15;;;;;;;28.73;20.30;;;18.20;99.90;;;;;;5071779;28;20029;-77
2021/09/07 00:06:41;;;;;;;31.15;19.08;;;18.20;99.90;;;;;;5070585;28;20032;-77
2021/09/07 00:09:07;;;;;;;26.63;19.10;;;18.10;99.90;;;;;;5072346;28;20032;-77
2021/09/07 00:11:33;;;;;;;31.33;19.33;;;18.10;99.90;;;;;;5070082;28;20028;-79
2021/09/07 00:13:59;;;;;;;30.33;20.45;;;18.10;99.90;;;;;;5071326;28;20028;-78
2021/09/07 00:16:25;;;;;;;27.55;19.23;;;18.10;99.90;;;;;;5071840;28;20025;-77
2021/09/07 00:18:51;;;;;;;26.67;18.55;;;18.00;99.90;;;;;;5068731;28;20051;-77
2021/09/07 00:21:17;;;;;;;24.40;17.63;;;18.00;99.90;;;;;;5072433;28;20074;-76
2021/09/07 00:23:43;;;;;;;26.05;17.70;;;18.00;99.90;;;;;;5069150;28;20036;-78
2021/09/07 00:26:09;;;;;;;29.15;18.52;;;17.90;99.90;;;;;;5072226;28;20016;-77
2021/09/07 00:28:35;;;;;;;26.80;17.42;;;18.00;99.90;;;;;;5069818;28;20067;-76
2021/09/07 00:31:00;;;;;;;24.55;17.30;;;18.00;99.90;;;;;;5071179;28;20017;-77
2021/09/07 00:33:26;;;;;;;27.23;18.50;;;18.00;99.90;;;;;;5070263;28;20057;-77
2021/09/07 00:35:52;;;;;;;25.88;16.83;;;18.00;99.90;;;;;;5071939;28;20016;-77
2021/09/07 00:38:17;;;;;;;22.38;16.05;;;17.90;99.90;;;;;;5068394;28;20028;-77
2021/09/07 00:40:43;;;;;;;27.42;18.38;;;17.90;99.90;;;;;;5070545;28;20032;-77
2021/09/07 00:43:09;;;;;;;26.30;17.23;;;17.90;99.90;;;;;;5070774;28;20020;-77
2021/09/07 00:45:34;;;;;;;28.60;18.38;;;17.90;99.90;;;;;;5064343;28;20025;-77
2021/09/07 00:48:00;;;;;;;29.38;17.70;;;17.80;99.90;;;;;;5064531;28;20047;-78
2021/09/07 00:50:26;;;;;;;30.67;19.17;;;17.80;99.90;;;;;;5066907;28;20017;-77
2021/09/07 00:52:54;;;;;;;35.20;20.38;;;17.80;99.90;;;;;;5071226;28;20033;-78
2021/09/07 00:55:22;;;;;;;26.48;18.13;;;17.80;99.90;;;;;;5070591;28;20016;-78
2021/09/07 00:57:49;;;;;;;30.75;19.42;;;17.70;99.90;;;;;;5071319;28;20032;-77
2021/09/07 01:00:15;;;;;;;30.98;20.80;;;17.70;99.90;;;;;;5071452;28;20033;-78
2021/09/07 01:02:41;;;;;;;26.85;18.02;;;17.70;99.90;;;;;;5071144;28;20021;-77
2021/09/07 01:05:08;;;;;;;28.67;19.00;;;17.60;99.90;;;;;;5071406;28;20032;-76
2021/09/07 01:07:34;;;;;;;30.38;19.90;;;17.60;99.90;;;;;;5069645;28;20036;-77
2021/09/07 01:10:01;;;;;;;29.80;20.88;;;17.60;99.90;;;;;;5071412;28;20385;-77
2021/09/07 01:12:27;;;;;;;30.92;19.75;;;17.60;99.90;;;;;;5071475;28;20024;-76
2021/09/07 01:14:53;;;;;;;28.58;19.33;;;17.60;99.90;;;;;;5071152;28;20747;-77
2021/09/07 01:17:19;;;;;;;30.40;18.70;;;17.60;99.90;;;;;;5071195;28;20021;-78
2021/09/07 01:19:47;;;;;;;27.95;18.45;;;17.50;99.90;;;;;;5071047;28;20095;-77
2021/09/07 01:22:17;;;;;;;30.23;20.73;;;17.50;99.90;;;;;;5066127;28;20055;-78
2021/09/07 01:24:42;;;;;;;29.80;20.80;;;17.50;99.90;;;;;;5070410;28;20464;-77
2021/09/07 01:27:08;;;;;;;30.52;19.65;;;17.50;99.90;;;;;;5069513;28;20074;-77
2021/09/07 01:29:36;;;;;;;29.55;19.58;;;17.50;99.90;;;;;;5055806;28;20111;-79
2021/09/07 01:32:03;;;;;;;26.70;18.25;;;17.50;99.90;;;;;;5071466;28;20020;-77
2021/09/07 01:34:29;;;;;;;33.90;21.23;;;17.40;99.90;;;;;;5063992;28;20028;-75
2021/09/07 01:36:56;;;;;;;33.00;20.98;;;17.40;99.90;;;;;;5071264;28;20024;-77
2021/09/07 01:39:23;;;;;;;33.42;20.85;;;17.40;99.90;;;;;;5071128;28;20037;-77
2021/09/07 01:41:50;;;;;;;32.63;21.10;;;17.40;99.90;;;;;;5072310;28;20021;-77
2021/09/07 01:44:17;;;;;;;30.17;20.80;;;17.40;99.90;;;;;;5072057;28;20412;-77
2021/09/07 01:46:42;;;;;;;40.75;25.48;;;17.20;99.90;;;;;;5070353;28;20042;-77
2021/09/07 01:49:10;;;;;;;34.58;23.58;;;17.10;99.90;;;;;;5054245;28;20150;-77
2021/09/07 01:51:38;;;;;;;34.63;20.27;;;17.20;99.90;;;;;;5072306;28;20016;-77
2021/09/07 01:54:04;;;;;;;31.65;21.52;;;17.20;99.90;;;;;;5071999;28;20385;-77
2021/09/07 01:56:30;;;;;;;33.45;22.33;;;17.20;99.90;;;;;;5065759;28;20048;-77
2021/09/07 01:58:56;;;;;;;32.75;21.92;;;17.30;99.90;;;;;;5065194;28;20473;-77
2021/09/07 02:01:21;;;;;;;32.60;20.40;;;17.20;99.90;;;;;;5069098;28;20381;-77
2021/09/07 02:03:47;;;;;;;30.63;21.15;;;17.20;99.90;;;;;;5063939;28;20086;-77
2021/09/07 02:06:13;;;;;;;27.20;19.10;;;17.20;99.90;;;;;;5072347;28;20461;-77
2021/09/07 02:08:38;;;;;;;27.73;19.55;;;17.20;99.90;;;;;;5069457;28;20110;-77
2021/09/07 02:11:04;;;;;;;26.60;18.70;;;17.10;99.90;;;;;;5071448;28;20491;-77
2021/09/07 02:13:30;;;;;;;28.35;19.75;;;17.10;99.90;;;;;;5081368;28;20025;-77
2021/09/07 02:15:55;;;;;;;28.20;19.63;;;17.10;99.90;;;;;;5051145;28;20020;-77
2021/09/07 02:18:21;;;;;;;31.92;21.27;;;17.10;99.90;;;;;;5063735;28;20058;-77
2021/09/07 02:20:47;;;;;;;36.38;22.00;;;17.10;99.90;;;;;;5070484;28;20031;-77
2021/09/07 02:23:13;;;;;;;30.50;19.90;;;17.10;99.90;;;;;;5071675;28;20025;-76
2021/09/07 02:25:38;;;;;;;31.67;20.60;;;17.10;99.90;;;;;;5053460;28;20052;-77
2021/09/07 02:28:04;;;;;;;30.90;20.95;;;17.10;99.90;;;;;;5069617;28;20043;-77
2021/09/07 02:30:30;;;;;;;35.10;20.30;;;17.00;99.90;;;;;;5071398;28;20024;-77
2021/09/07 02:32:56;;;;;;;34.58;21.55;;;17.00;99.90;;;;;;5071580;28;20089;-77
2021/09/07 02:35:22;;;;;;;31.55;21.15;;;17.00;99.90;;;;;;5072539;28;20043;-77
2021/09/07 02:37:48;;;;;;;34.53;21.65;;;17.00;99.90;;;;;;5075103;28;20029;-77
2021/09/07 02:40:14;;;;;;;31.08;21.27;;;16.90;99.90;;;;;;5075340;28;20163;-77
2021/09/07 02:42:40;;;;;;;33.85;22.27;;;17.00;99.90;;;;;;5074772;28;20583;-76
2021/09/07 02:45:06;;;;;;;35.58;22.38;;;16.90;99.90;;;;;;5073534;28;20021;-77
2021/09/07 02:47:32;;;;;;;32.97;21.58;;;16.90;99.90;;;;;;5073480;28;20024;-77
2021/09/07 02:49:58;;;;;;;30.25;21.00;;;16.90;99.90;;;;;;5075269;28;20077;-77
2021/09/07 02:52:23;;;;;;;31.25;21.08;;;16.90;99.90;;;;;;5075421;28;20024;-77
2021/09/07 02:54:49;;;;;;;30.40;19.70;;;16.90;99.90;;;;;;5074977;28;20027;-77
2021/09/07 02:57:14;;;;;;;32.40;20.70;;;16.90;99.90;;;;;;5075025;28;20044;-76
2021/09/07 02:59:40;;;;;;;31.63;21.02;;;16.90;99.90;;;;;;5074321;28;20062;-77
2021/09/07 03:02:06;;;;;;;31.48;20.58;;;16.80;99.90;;;;;;5075294;28;20051;-77
2021/09/07 03:04:31;;;;;;;31.42;20.50;;;16.80;99.90;;;;;;5071509;28;20033;-77
2021/09/07 03:06:57;;;;;;;32.78;21.02;;;16.80;99.90;;;;;;5073067;28;20712;-77
2021/09/07 03:09:22;;;;;;;32.03;21.52;;;16.80;99.90;;;;;;5073076;28;20489;-77
2021/09/07 03:11:48;;;;;;;39.25;23.25;;;16.70;99.90;;;;;;5073054;28;20461;-77
2021/09/07 03:14:14;;;;;;;38.90;24.80;;;16.80;99.90;;;;;;5074214;28;20024;-77
2021/09/07 03:16:40;;;;;;;37.97;25.38;;;16.70;99.90;;;;;;5073737;28;20633;-77
2021/09/07 03:19:05;;;;;;;40.22;25.42;;;16.70;99.90;;;;;;5074735;28;20028;-76
2021/09/07 03:21:31;;;;;;;37.67;24.52;;;16.70;99.90;;;;;;5074285;28;20024;-77
2021/09/07 03:23:57;;;;;;;36.13;24.38;;;16.70;99.90;;;;;;5074429;28;20036;-78
2021/09/07 03:26:23;;;;;;;35.70;24.23;;;16.70;99.90;;;;;;5073965;28;20025;-77
2021/09/07 03:28:48;;;;;;;34.55;23.90;;;16.70;99.90;;;;;;5071769;28;20047;-77
2021/09/07 03:31:14;;;;;;;38.63;24.95;;;16.70;99.90;;;;;;5074566;28;20016;-77
2021/09/07 03:33:40;;;;;;;35.97;23.10;;;16.60;99.90;;;;;;5074309;28;20591;-78
2021/09/07 03:36:05;;;;;;;35.45;22.13;;;16.60;99.90;;;;;;5073104;28;20054;-78
2021/09/07 03:38:32;;;;;;;34.95;22.95;;;16.60;99.90;;;;;;5073995;28;20031;-77
2021/09/07 03:40:58;;;;;;;38.30;23.90;;;16.60;99.90;;;;;;5073029;28;20048;-77
2021/09/07 03:43:24;;;;;;;32.67;22.65;;;16.60;99.90;;;;;;5074150;28;20056;-77
2021/09/07 03:45:49;;;;;;;34.85;22.65;;;16.50;99.90;;;;;;5073941;28;20020;-78
2021/09/07 03:48:15;;;;;;;35.80;24.52;;;16.50;99.90;;;;;;5070992;28;20032;-78
2021/09/07 03:50:41;;;;;;;36.90;22.92;;;16.50;99.90;;;;;;5073100;28;20481;-77
2021/09/07 03:53:06;;;;;;;37.88;25.67;;;16.50;99.90;;;;;;5073964;28;20111;-78
2021/09/07 03:55:32;;;;;;;38.97;25.35;;;16.50;99.90;;;;;;5074101;28;20035;-77
2021/09/07 03:57:58;;;;;;;32.95;21.75;;;16.50;99.90;;;;;;5073897;28;20028;-78
2021/09/07 04:00:23;;;;;;;31.40;21.10;;;16.40;99.90;;;;;;5073692;28;20025;-77
2021/09/07 04:02:49;;;;;;;32.17;21.50;;;16.40;99.90;;;;;;5073136;28;20036;-77
2021/09/07 04:05:15;;;;;;;35.97;22.83;;;16.40;99.90;;;;;;5073309;28;20025;-78
2021/09/07 04:07:40;;;;;;;35.53;23.75;;;16.40;99.90;;;;;;5071317;28;20036;-78
2021/09/07 04:10:07;;;;;;;36.72;23.10;;;16.50;99.90;;;;;;5073038;28;20020;-78
2021/09/07 04:12:33;;;;;;;37.42;23.63;;;16.40;99.90;;;;;;5073963;28;20099;-78
2021/09/07 04:14:58;;;;;;;38.20;22.30;;;16.40;99.90;;;;;;5073653;28;20017;-77
2021/09/07 04:17:24;;;;;;;34.80;22.25;;;16.40;99.90;;;;;;5073534;28;20423;-78
2021/09/07 04:19:50;;;;;;;35.80;22.63;;;16.40;99.90;;;;;;5073547;28;20166;-77
2021/09/07 04:22:15;;;;;;;31.70;21.17;;;16.40;99.90;;;;;;5072622;28;20510;-78
2021/09/07 04:24:41;;;;;;;33.20;22.58;;;16.40;99.90;;;;;;5072927;28;20048;-76
2021/09/07 04:27:07;;;;;;;36.03;21.13;;;16.40;99.90;;;;;;5071789;28;20021;-78
2021/09/07 04:29:33;;;;;;;36.17;24.10;;;16.40;99.90;;;;;;5072936;28;20040;-78
2021/09/07 04:31:58;;;;;;;30.67;20.58;;;16.40;99.90;;;;;;5073290;28;20039;-78
2021/09/07 04:34:24;;;;;;;30.35;20.60;;;16.50;99.90;;;;;;5073121;28;20025;-77
2021/09/07 04:36:49;;;;;;;36.80;24.25;;;16.40;99.90;;;;;;5078540;28;20268;-76
2021/09/07 04:39:15;;;;;;;36.28;23.42;;;16.40;99.90;;;;;;5072731;28;20028;-76
2021/09/07 04:41:41;;;;;;;35.38;23.45;;;16.40;99.90;;;;;;5072774;28;20016;-78
2021/09/07 04:44:07;;;;;;;33.65;22.83;;;16.30;99.90;;;;;;5073221;28;20453;-78
2021/09/07 04:46:33;;;;;;;34.63;22.08;;;16.30;99.90;;;;;;5072979;28;20025;-78
2021/09/07 04:48:58;;;;;;;27.45;19.58;;;16.30;99.90;;;;;;5070977;28;20036;-77
2021/09/07 04:51:26;;;;;;;28.00;19.25;;;16.30;99.90;;;;;;5072776;28;20024;-79
2021/09/07 04:53:52;;;;;;;30.73;19.80;;;16.30;99.90;;;;;;5072481;28;20690;-77
2021/09/07 04:56:20;;;;;;;30.40;19.55;;;16.30;99.90;;;;;;5073174;28;20095;-76
2021/09/07 04:58:46;;;;;;;25.02;17.45;;;16.30;99.90;;;;;;5072398;28;20031;-77
2021/09/07 05:01:11;;;;;;;31.02;20.58;;;16.40;99.90;;;;;;5072033;28;20028;-77
2021/09/07 05:03:38;;;;;;;27.88;20.08;;;16.40;99.90;;;;;;5071696;28;20111;-78
2021/09/07 05:06:03;;;;;;;27.60;18.55;;;16.40;99.90;;;;;;5072510;28;20031;-77
2021/09/07 05:08:29;;;;;;;28.10;17.60;;;16.40;99.90;;;;;;5070190;28;20028;-78
2021/09/07 05:10:55;;;;;;;26.60;18.45;;;16.50;99.90;;;;;;5071970;28;20025;-77
2021/09/07 05:13:21;;;;;;;29.33;19.67;;;16.50;99.90;;;;;;5072374;28;20037;-77
2021/09/07 05:15:46;;;;;;;32.50;21.08;;;16.50;99.90;;;;;;5072890;28;20481;-78
2021/09/07 05:18:12;;;;;;;34.58;21.88;;;16.40;99.90;;;;;;5066910;28;20046;-77
2021/09/07 05:20:38;;;;;;;34.83;21.25;;;16.40;99.90;;;;;;5054580;28;20025;-77
2021/09/07 05:23:04;;;;;;;35.30;22.58;;;16.40;99.90;;;;;;5066281;28;20039;-78
2021/09/07 05:25:30;;;;;;;37.45;24.40;;;16.50;99.90;;;;;;5072241;28;20463;-78
2021/09/07 05:27:57;;;;;;;34.30;21.63;;;16.50;99.90;;;;;;5070812;28;20024;-78
2021/09/07 05:30:24;;;;;;;31.63;20.40;;;16.50;99.90;;;;;;5072524;28;20545;-78
2021/09/07 05:32:49;;;;;;;35.88;22.20;;;16.50;99.90;;;;;;5071653;28;20031;-78
2021/09/07 05:35:16;;;;;;;31.65;20.92;;;16.50;99.90;;;;;;5071704;28;20103;-78
2021/09/07 05:37:42;;;;;;;34.60;20.25;;;16.50;99.90;;;;;;5071818;28;20132;-77
2021/09/07 05:40:13;;;;;;;28.75;19.20;;;16.50;99.90;;;;;;5071757;28;20536;-78
2021/09/07 05:42:42;;;;;;;33.25;21.92;;;16.50;99.90;;;;;;5071820;28;20032;-79
2021/09/07 05:45:15;;;;;;;30.13;20.38;;;16.60;99.90;;;;;;5072086;28;20025;-77
2021/09/07 05:47:41;;;;;;;30.55;20.30;;;16.60;99.90;;;;;;5065750;28;20485;-78
2021/09/07 05:50:08;;;;;;;31.02;21.05;;;16.70;99.90;;;;;;5071565;28;20016;-79
2021/09/07 05:52:34;;;;;;;33.20;21.48;;;16.70;99.90;;;;;;5071948;28;20112;-78
2021/09/07 05:55:01;;;;;;;32.65;21.38;;;16.60;99.90;;;;;;5071458;28;20100;-78
2021/09/07 05:57:27;;;;;;;34.13;21.92;;;16.60;99.90;;;;;;5071847;28;20047;-78
2021/09/07 05:59:54;;;;;;;32.53;21.63;;;16.60;99.90;;;;;;5071922;28;20029;-78
2021/09/07 06:02:21;;;;;;;31.63;20.67;;;16.60;99.90;;;;;;5071115;28;20021;-78
2021/09/07 06:04:47;;;;;;;37.05;21.67;;;16.50;99.90;;;;;;5071391;28;20032;-77
2021/09/07 06:07:12;;;;;;;34.70;21.60;;;16.50;99.90;;;;;;5051182;28;20037;-77
2021/09/07 06:09:38;;;;;;;27.70;19.33;;;16.50;99.90;;;;;;5080230;28;20476;-76
2021/09/07 06:12:04;;;;;;;31.75;20.05;;;16.50;99.90;;;;;;5073709;28;20025;-77
2021/09/07 06:14:31;;;;;;;33.40;22.13;;;16.60;99.90;;;;;;5075548;28;20024;-78
2021/09/07 06:16:57;;;;;;;32.95;22.92;;;16.60;99.90;;;;;;5075450;28;20025;-78
2021/09/07 06:19:23;;;;;;;40.17;25.75;;;16.70;99.90;;;;;;5074759;28;20503;-77
2021/09/07 06:21:48;;;;;;;40.90;24.42;;;16.70;99.90;;;;;;5075546;28;20083;-76
2021/09/07 06:24:14;;;;;;;46.78;28.02;;;16.70;99.90;;;;;;5074181;28;20031;-76
2021/09/07 06:26:39;;;;;;;44.30;25.08;;;16.70;99.90;;;;;;5071456;28;20480;-75
2021/09/07 06:29:05;;;;;;;36.47;23.55;;;16.70;99.90;;;;;;5074939;28;20033;-77
2021/09/07 06:31:31;;;;;;;40.22;22.83;;;16.80;99.90;;;;;;5074374;28;20020;-77
2021/09/07 06:33:56;;;;;;;37.00;22.83;;;16.80;99.90;;;;;;5075217;28;20028;-77
2021/09/07 06:36:22;;;;;;;37.03;23.63;;;16.80;99.90;;;;;;5074774;28;20037;-77
2021/09/07 06:38:47;;;;;;;40.50;23.80;;;16.90;99.90;;;;;;5073947;28;20028;-76
2021/09/07 06:41:13;;;;;;;36.33;23.80;;;16.90;99.90;;;;;;5073362;28;20020;-76
2021/09/07 06:43:39;;;;;;;40.80;23.95;;;17.00;99.90;;;;;;5074013;28;20028;-77
2021/09/07 06:46:04;;;;;;;41.20;25.23;;;17.00;99.90;;;;;;5075211;28;20016;-77
2021/09/07 06:48:30;;;;;;;40.20;24.58;;;17.00;99.90;;;;;;5072456;28;20059;-77
2021/09/07 06:50:56;;;;;;;36.88;24.50;;;17.10;99.90;;;;;;5075760;28;20347;-77
2021/09/07 06:53:22;;;;;;;35.58;23.48;;;17.00;99.90;;;;;;5080545;28;20080;-76
2021/09/07 06:55:48;;;;;;;45.08;28.00;;;17.10;99.90;;;;;;5077076;28;20499;-77
2021/09/07 06:58:13;;;;;;;41.17;25.10;;;17.10;99.90;;;;;;5075463;28;20024;-77
2021/09/07 07:00:39;;;;;;;41.38;25.85;;;17.10;99.90;;;;;;5075177;28;20346;-76
2021/09/07 07:03:04;;;;;;;35.33;23.52;;;17.20;99.90;;;;;;5056733;28;20035;-76
2021/09/07 07:05:30;;;;;;;35.30;22.88;;;17.30;99.90;;;;;;5074215;28;20103;-77
2021/09/07 07:07:56;;;;;;;38.25;25.55;;;17.30;99.90;;;;;;5072818;28;20040;-77
2021/09/07 07:10:21;;;;;;;41.38;26.17;;;17.40;99.90;;;;;;5069004;28;20024;-77
2021/09/07 07:12:47;;;;;;;43.20;28.27;;;17.40;99.90;;;;;;5074063;28;20032;-76
2021/09/07 07:15:13;;;;;;;44.92;28.45;;;17.40;99.90;;;;;;5074388;28;20020;-75
2021/09/07 07:17:39;;;;;;;52.35;32.42;;;17.40;99.90;;;;;;5070612;28;20036;-76
2021/09/07 07:20:05;;;;;;;49.00;33.55;;;17.50;99.90;;;;;;5071029;28;20039;-77
2021/09/07 07:22:31;;;;;;;60.75;38.55;;;17.50;99.90;;;;;;5063943;28;20098;-76
2021/09/07 07:24:56;;;;;;;59.97;38.58;;;17.60;99.90;;;;;;5072732;28;20048;-77
2021/09/07 07:27:22;;;;;;;71.22;41.50;;;17.60;99.90;;;;;;5084347;28;20044;-77
2021/09/07 07:29:48;;;;;;;56.17;34.80;;;17.60;99.90;;;;;;5045585;28;20024;-76
2021/09/07 07:32:14;;;;;;;60.53;36.55;;;17.70;99.90;;;;;;5051785;28;20028;-77
2021/09/07 07:34:39;;;;;;;64.32;41.78;;;17.80;99.90;;;;;;5072977;28;20056;-77
2021/09/07 07:37:05;;;;;;;50.50;33.70;;;17.80;99.90;;;;;;5072637;28;20039;-77
2021/09/07 07:39:32;;;;;;;61.15;39.42;;;17.90;99.90;;;;;;5072999;28;20481;-76
2021/09/07 07:41:58;;;;;;;72.80;42.83;;;18.00;99.90;;;;;;5068157;28;20086;-76
2021/09/07 07:44:24;;;;;;;65.32;41.05;;;18.10;99.90;;;;;;5064234;28;20494;-78
2021/09/07 07:46:50;;;;;;;66.32;40.17;;;18.20;99.90;;;;;;5066380;28;20034;-77
2021/09/07 07:49:16;;;;;;;59.42;39.20;;;18.30;99.90;;;;;;5072889;28;20029;-78
2021/09/07 07:51:42;;;;;;;66.70;40.10;;;18.50;99.90;;;;;;5066205;28;20442;-76
2021/09/07 07:54:09;;;;;;;62.80;39.03;;;18.60;99.90;;;;;;5070930;28;20063;-77
2021/09/07 07:56:36;;;;;;;65.20;39.28;;;18.70;99.90;;;;;;5072709;28;20060;-79
2021/09/07 07:59:02;;;;;;;65.25;37.22;;;18.80;99.90;;;;;;5070549;28;20020;-79
2021/09/07 08:01:28;;;;;;;66.90;41.63;;;18.90;99.90;;;;;;5054699;28;20024;-77
2021/09/07 08:03:54;;;;;;;74.32;44.78;;;19.00;99.90;;;;;;5072709;28;20103;-78
2021/09/07 08:06:19;;;;;;;65.60;41.20;;;19.10;99.90;;;;;;5072418;28;20155;-76
2021/09/07 08:08:45;;;;;;;74.10;41.78;;;19.20;99.90;;;;;;5073051;28;20055;-78
2021/09/07 08:11:11;;;;;;;70.95;41.45;;;19.30;99.90;;;;;;5069542;28;20025;-77
2021/09/07 08:13:37;;;;;;;74.18;43.63;;;19.50;99.90;;;;;;5072739;28;20021;-75
2021/09/07 08:16:02;;;;;;;69.35;42.45;;;19.60;99.90;;;;;;5054697;28;20495;-78
2021/09/07 08:18:28;;;;;;;63.35;38.78;;;19.70;99.90;;;;;;5064333;28;20067;-77
2021/09/07 08:20:54;;;;;;;69.95;44.53;;;19.90;99.90;;;;;;5070241;28;20024;-77
2021/09/07 08:23:20;;;;;;;61.15;38.88;;;20.00;99.90;;;;;;5079368;28;20021;-78
2021/09/07 08:25:45;;;;;;;64.72;39.65;;;20.10;99.90;;;;;;5072399;28;20099;-77
2021/09/07 08:28:11;;;;;;;61.58;38.85;;;20.20;99.90;;;;;;5070708;28;20035;-78
2021/09/07 08:30:37;;;;;;;65.25;38.70;;;20.30;99.90;;;;;;5052498;28;20381;-78
2021/09/07 08:33:03;;;;;;;58.75;35.72;;;20.40;99.90;;;;;;5072389;28;20405;-78
2021/09/07 08:35:29;;;;;;;59.08;35.80;;;20.60;99.90;;;;;;5071707;28;20432;-76
2021/09/07 08:37:54;;;;;;;54.15;34.10;;;20.60;99.90;;;;;;5067052;28;20039;-77
2021/09/07 08:40:20;;;;;;;54.25;32.80;;;20.80;99.90;;;;;;5068609;28;20413;-77
2021/09/07 08:42:46;;;;;;;60.67;35.50;;;20.80;99.90;;;;;;5072071;28;20040;-78
2021/09/07 08:45:14;;;;;;;55.35;35.67;;;20.90;99.90;;;;;;5072046;28;20016;-78
2021/09/07 08:47:42;;;;;;;61.90;37.97;;;21.00;99.90;;;;;;5058513;28;20055;-78
2021/09/07 08:50:08;;;;;;;51.35;34.47;;;21.10;99.90;;;;;;5069907;28;20020;-77
2021/09/07 08:52:34;;;;;;;52.30;32.13;;;21.20;99.90;;;;;;5072687;28;20032;-78
2021/09/07 08:54:59;;;;;;;51.67;34.80;;;21.20;99.90;;;;;;5072253;28;20048;-77
2021/09/07 08:57:26;;;;;;;55.22;36.75;;;21.30;99.90;;;;;;5072223;28;20028;-79
2021/09/07 09:00:05;;;;;;;52.45;35.38;;;21.40;99.90;;;;;;5070128;28;20024;-78
2021/09/07 09:02:37;;;;;;;55.15;32.83;;;21.50;99.90;;;;;;5072115;28;20432;-78
2021/09/07 09:05:03;;;;;;;;;;;21.60;99.90;;;;;;5070790;28;20372;-79
2021/09/07 09:07:30;;;;;;;48.38;31.13;;;21.60;99.90;;;;;;5070223;28;19920;-78
2021/09/07 09:09:58;;;;;;;44.40;30.05;;;21.80;99.90;;;;;;5072195;28;20035;-77
2021/09/07 09:12:30;;;;;;;43.60;27.90;;;21.80;99.90;;;;;;5076181;28;20094;-77
2021/09/07 09:14:57;;;;;;;50.10;29.40;;;21.90;99.90;;;;;;5054620;28;20029;-78
2021/09/07 09:17:32;;;;;;;47.67;30.52;;;22.00;99.90;;;;;;5072048;28;20020;-78
2021/09/07 09:20:05;;;;;;;42.17;28.40;;;22.10;99.90;;;;;;5053506;28;20451;-76
2021/09/07 09:22:49;;;;;;;41.47;26.23;;;22.30;99.90;;;;;;5054064;28;20033;-79
2021/09/07 09:25:24;;;;;;;43.22;28.17;;;22.30;99.90;;;;;;5071693;28;20039;-78
2021/09/07 09:27:49;;;;;;;42.83;29.02;;;22.40;99.90;;;;;;5069138;28;20033;-78
2021/09/07 09:30:16;;;;;;;40.20;25.48;;;22.60;99.90;;;;;;5069417;28;20035;-78
2021/09/07 09:32:48;;;;;;;45.97;25.83;;;22.70;99.90;;;;;;5070926;28;20526;-77
2021/09/07 09:35:14;;;;;;;41.57;27.43;;;22.80;99.90;;;;;;5072102;28;20067;-77
2021/09/07 09:37:56;;;;;;;42.65;24.92;;;23.00;99.90;;;;;;5072033;28;20041;-77
2021/09/07 09:40:22;;;;;;;39.78;27.00;;;23.20;99.90;;;;;;5063281;28;20021;-78
2021/09/07 09:42:48;;;;;;;39.65;24.92;;;23.30;99.90;;;;;;5071313;28;20060;-77
2021/09/07 09:45:15;;;;;;;36.63;22.48;;;23.40;99.90;;;;;;5072547;28;20078;-78
2021/09/07 09:47:51;;;;;;;40.03;25.52;;;23.50;99.90;;;;;;5078231;28;20079;-78
2021/09/07 09:50:18;;;;;;;34.47;22.27;;;23.60;99.90;;;;;;5075637;28;20036;-77
2021/09/07 09:52:45;;;;;;;40.80;22.90;;;23.70;99.90;;;;;;5059897;28;20056;-79
2021/09/07 09:55:13;;;;;;;42.20;23.60;;;23.70;99.90;;;;;;5078095;28;20071;-78
2021/09/07 09:57:40;;;;;;;40.75;21.80;;;23.90;99.90;;;;;;5063900;28;20020;-79
2021/09/07 10:00:09;;;;;;;37.03;22.17;;;24.00;99.90;;;;;;5073251;28;20020;-78
2021/09/07 10:02:36;;;;;;;30.65;20.00;;;24.10;99.90;;;;;;5076144;28;20024;-77
2021/09/07 10:05:02;;;;;;;31.00;19.95;;;24.20;99.90;;;;;;5075550;28;20076;-76
2021/09/07 10:07:28;;;;;;;33.90;22.38;;;24.30;99.90;;;;;;5072183;28;20036;-78
2021/09/07 10:09:57;;;;;;;35.83;22.98;;;24.40;99.90;;;;;;5077080;28;20027;-78
2021/09/07 10:12:41;;;;;;;31.65;18.75;;;24.40;99.90;;;;;;5076013;28;20016;-79
2021/09/07 10:17:48;;;;;;;29.98;18.20;;;24.70;99.90;;;;;;5075088;28;20024;-79
2021/09/07 10:20:36;;;;;;;26.55;17.10;;;24.80;99.90;;;;;;5072466;28;20048;-79
2021/09/07 10:25:52;;;;;;;26.80;15.80;;;24.90;99.90;;;;;;5073115;28;20044;-80
2021/09/07 10:28:41;;;;;;;25.10;15.95;;;25.10;99.90;;;;;;5054520;28;20032;-77
2021/09/07 10:31:18;;;;;;;26.67;15.93;;;25.10;99.90;;;;;;5075414;28;20107;-80
2021/09/07 10:33:45;;;;;;;26.45;18.15;;;25.20;99.70;;;;;;5052164;28;20423;-78
2021/09/07 10:36:14;;;;;;;23.75;14.52;;;25.30;98.80;;;;;;5074572;28;20123;-75
2021/09/07 10:38:55;;;;;;;27.58;18.02;;;25.40;99.90;;;;;;5074311;28;20069;-79
2021/09/07 10:41:33;;;;;;;27.42;17.23;;;25.50;99.50;;;;;;5072072;28;20377;-78
2021/09/07 10:44:06;;;;;;;27.77;17.73;;;25.50;99.40;;;;;;5073343;28;20032;-79
2021/09/07 10:46:38;;;;;;;26.77;18.08;;;25.60;99.90;;;;;;5075132;28;20104;-77
2021/09/07 10:49:13;;;;;;;23.52;16.77;;;25.60;99.90;;;;;;5077066;28;20028;-79
2021/09/07 10:54:33;;;;;;;20.35;14.07;;;25.80;99.30;;;;;;5074468;28;20099;-78
2021/09/07 10:57:01;;;;;;;23.17;14.57;;;26.00;99.90;;;;;;5075791;28;20033;-78
2021/09/07 10:59:50;;;;;;;17.27;12.73;;;26.00;99.20;;;;;;5073701;28;20029;-79
2021/09/07 11:02:34;;;;;;;19.00;13.55;;;26.10;99.10;;;;;;5064866;28;20063;-78
2021/09/07 11:05:03;;;;;;;24.00;13.85;;;26.10;98.80;;;;;;5072945;28;20108;-75
2021/09/07 11:07:35;;;;;;;17.13;11.98;;;26.20;99.20;;;;;;5074344;28;20075;-80
2021/09/07 11:10:01;;;;;;;17.23;12.02;;;26.30;99.90;;;;;;5071135;28;20059;-77
2021/09/07 11:12:31;;;;;;;19.08;14.50;;;26.40;99.90;;;;;;5068992;28;20028;-78
2021/09/07 11:15:07;;;;;;;16.70;11.70;;;26.50;99.90;;;;;;5066834;28;20044;-78
2021/09/07 11:17:34;;;;;;;17.73;13.70;;;26.40;99.90;;;;;;5073197;28;20032;-78
2021/09/07 11:20:06;;;;;;;19.48;11.18;;;26.50;99.90;;;;;;5065449;28;20103;-78
2021/09/07 11:22:34;;;;;;;14.95;10.90;;;26.50;99.90;;;;;;5067459;28;20044;-77
2021/09/07 11:25:12;;;;;;;14.93;10.88;;;26.50;99.90;;;;;;5069526;28;20012;-78
2021/09/07 11:27:51;;;;;;;13.40;9.70;;;26.70;99.90;;;;;;5074087;28;20037;-78
2021/09/07 11:30:30;;;;;;;17.65;12.50;;;26.90;98.70;;;;;;5070475;28;20029;-78
2021/09/07 11:33:06;;;;;;;21.17;13.88;;;26.90;98.70;;;;;;5046536;28;20047;-78
2021/09/07 11:35:38;;;;;;;21.45;14.52;;;26.90;99.90;;;;;;5066243;28;20043;-77
2021/09/07 11:38:06;;;;;;;;;;;27.00;99.00;;;;;;5071893;28;20037;-77
2021/09/07 11:40:33;;;;;;;16.33;12.45;;;27.10;99.10;;;;;;5069841;28;20098;-78
2021/09/07 11:43:00;;;;;;;16.75;13.15;;;27.10;99.90;;;;;;5070488;28;20033;-78
2021/09/07 11:45:32;;;;;;;18.40;13.15;;;27.10;98.80;;;;;;5065625;28;20017;-77
2021/09/07 11:47:59;;;;;;;17.13;12.85;;;27.20;99.10;;;;;;5064196;28;20074;-77
2021/09/07 11:50:31;;;;;;;20.08;14.38;;;27.20;99.10;;;;;;5072581;28;20009;-76
2021/09/07 11:52:59;;;;;;;17.08;13.10;;;27.00;99.90;;;;;;5068117;28;20108;-77
2021/09/07 11:55:39;;;;;;;20.25;12.63;;;27.10;99.90;;;;;;5065372;28;20021;-79
2021/09/07 11:58:06;;;;;;;17.33;12.35;;;27.20;98.80;;;;;;5061969;28;20024;-78
2021/09/07 12:00:32;;;;;;;14.32;9.70;;;27.30;99.90;;;;;;5069484;28;20102;-78
2021/09/07 12:03:10;;;;;;;15.25;10.23;;;27.30;99.50;;;;;;5071477;28;20060;-78
2021/09/07 12:05:57;;;;;;;11.60;8.68;;;27.30;98.70;;;;;;5070825;28;20374;-77
2021/09/07 12:08:36;;;;;;;12.05;7.85;;;27.40;99.00;;;;;;5070196;28;20035;-79
2021/09/07 12:11:01;;;;;;;11.05;9.35;;;27.40;99.90;;;;;;5071330;28;20119;-78
2021/09/07 12:13:27;;;;;;;10.70;8.95;;;27.40;99.90;;;;;;5071468;28;20599;-79
2021/09/07 12:15:53;;;;;;;11.98;9.20;;;27.30;99.00;;;;;;5071390;28;20020;-77
2021/09/07 12:18:39;;;;;;;16.20;10.10;;;27.40;99.00;;;;;;5070658;28;20252;-78
2021/09/07 12:21:31;;;;;;;17.70;11.65;;;27.50;99.10;;;;;;5072055;28;20021;-79
2021/09/07 12:23:56;;;;;;;12.85;10.48;;;27.40;97.60;;;;;;5057952;28;20025;-79
2021/09/07 12:26:39;;;;;;;15.05;8.98;;;27.50;98.60;;;;;;5073032;28;20069;-79
2021/09/07 12:29:16;;;;;;;11.15;9.35;;;27.60;99.90;;;;;;5069095;28;20043;-78
2021/09/07 12:31:44;;;;;;;13.25;10.20;;;27.60;99.90;;;;;;5041722;28;20030;-77
2021/09/07 12:34:10;;;;;;;11.63;8.60;;;27.80;99.90;;;;;;5071375;28;20099;-78
2021/09/07 12:36:47;;;;;;;13.40;10.75;;;27.70;99.90;;;;;;5071628;28;20024;-78
2021/09/07 12:39:14;;;;;;;13.23;10.75;;;27.70;99.70;;;;;;5071494;28;20567;-75